createdAt,value
2022-09-11T00:02:40.264Z,6.20
2022-09-11T00:07:41.780Z,5.33
2022-09-11T00:12:43.486Z,6.47
2022-09-11T00:17:44.978Z,6.40
2022-09-11T00:22:48.576Z,6.20
2022-09-11T00:27:51.791Z,6.10
2022-09-11T00:32:53.271Z,8.57
2022-09-11T00:37:54.792Z,5.37
2022-09-11T00:42:57.426Z,6.83
2022-09-11T00:47:59.593Z,5.80
2022-09-11T00:53:03.988Z,7.40
2022-09-11T00:58:08.480Z,5.87
2022-09-11T01:03:10.914Z,6.57
2022-09-11T01:08:14.434Z,8.80
2022-09-11T01:13:22.088Z,11.37
2022-09-11T01:19:01.875Z,11.57
2022-09-11T01:24:39.871Z,8.30
2022-09-11T01:29:57.946Z,8.40
2022-09-11T01:35:17.833Z,11.03
2022-09-11T01:40:31.910Z,9.17
2022-09-11T01:45:37.340Z,11.47
2022-09-11T01:50:41.711Z,9.00
2022-09-11T01:55:46.518Z,9.93
2022-09-11T02:00:51.853Z,9.20
2022-09-11T02:05:59.482Z,9.50
2022-09-11T02:11:07.149Z,10.37
2022-09-11T02:16:16.668Z,11.37
2022-09-11T02:21:18.367Z,11.50
2022-09-11T02:26:21.255Z,13.00
2022-09-11T02:31:22.932Z,12.97
2022-09-11T02:36:36.543Z,14.20
2022-09-11T02:42:07.170Z,15.93
2022-09-11T02:47:27.934Z,15.67
2022-09-11T02:52:50.515Z,14.70
2022-09-11T02:58:02.620Z,18.03
2022-09-11T03:03:06.722Z,18.20
2022-09-11T03:08:08.618Z,17.30
2022-09-11T03:13:11.114Z,19.43
2022-09-11T03:18:15.624Z,16.20
2022-09-11T03:23:17.525Z,20.53
2022-09-11T03:28:19.380Z,18.57
2022-09-11T03:33:23.666Z,23.30
2022-09-11T03:38:25.330Z,20.23
2022-09-11T03:43:28.300Z,22.57
2022-09-11T03:48:29.841Z,22.20
2022-09-11T03:53:32.981Z,27.47
2022-09-11T03:58:34.579Z,23.17
2022-09-11T04:03:36.264Z,22.67
2022-09-11T04:08:40.002Z,18.03
2022-09-11T04:13:43.792Z,24.60
2022-09-11T04:18:49.439Z,29.23
2022-09-11T04:23:56.367Z,28.70
2022-09-11T04:28:59.851Z,27.20
2022-09-11T04:34:01.496Z,26.83
2022-09-11T04:39:07.405Z,32.30
2022-09-11T04:44:09.168Z,30.87
2022-09-11T04:49:17.187Z,31.37
2022-09-11T04:54:23.931Z,31.47
2022-09-11T04:59:26.418Z,32.33
2022-09-11T05:04:33.311Z,31.17
2022-09-11T05:09:36.283Z,35.30
2022-09-11T05:14:39.361Z,35.33
2022-09-11T05:19:41.140Z,35.83
2022-09-11T05:24:43.292Z,42.27
2022-09-11T05:29:44.859Z,38.43
2022-09-11T05:34:49.769Z,40.20
2022-09-11T05:39:54.341Z,42.97
2022-09-11T05:44:55.924Z,36.10
2022-09-11T05:50:01.396Z,31.47
2022-09-11T05:55:03.040Z,32.07
2022-09-11T06:00:06.826Z,30.43
2022-09-11T06:05:11.787Z,31.13
2022-09-11T06:10:13.735Z,31.87
2022-09-11T06:15:36.347Z,31.77
2022-09-11T06:20:39.757Z,36.17
2022-09-11T06:25:44.931Z,40.43
2022-09-11T06:30:49.425Z,40.10
2022-09-11T06:35:58.692Z,37.33
2022-09-11T06:41:03.027Z,40.77
2022-09-11T06:46:12.675Z,37.77
2022-09-11T06:51:17.521Z,36.97
2022-09-11T06:56:19.135Z,34.50
2022-09-11T07:01:22.829Z,43.42
2022-09-11T07:06:30.287Z,35.13
2022-09-11T07:11:34.227Z,32.97
2022-09-11T07:16:36.700Z,37.00
2022-09-11T07:21:43.322Z,32.90
2022-09-11T07:26:45.543Z,34.67
2022-09-11T07:31:57.763Z,36.87
2022-09-11T07:36:59.640Z,39.73
2022-09-11T07:42:02.004Z,43.87
2022-09-11T07:47:07.285Z,44.07
2022-09-11T07:52:16.985Z,44.30
2022-09-11T07:57:24.208Z,48.00
2022-09-11T08:02:26.327Z,46.43
2022-09-11T08:07:28.623Z,48.67
2022-09-11T08:12:31.416Z,47.63
2022-09-11T08:17:32.936Z,47.80
2022-09-11T08:22:34.475Z,51.07
2022-09-11T08:27:36.160Z,46.97
2022-09-11T08:32:37.826Z,38.03
2022-09-11T08:37:40.111Z,31.93
2022-09-11T08:42:43.774Z,39.13
2022-09-11T08:47:56.651Z,37.50
2022-09-11T08:53:00.468Z,31.30
2022-09-11T08:58:17.672Z,39.88
2022-09-11T09:03:41.917Z,39.93
2022-09-11T09:08:55.495Z,35.57
2022-09-11T09:14:19.913Z,36.77
2022-09-11T09:19:48.187Z,35.60
2022-09-11T09:24:52.218Z,37.47
2022-09-11T09:29:57.707Z,37.67
2022-09-11T09:35:03.358Z,31.23
2022-09-11T09:40:09.262Z,34.10
2022-09-11T09:45:37.611Z,36.37
2022-09-11T09:50:40.994Z,36.30
2022-09-11T09:55:45.405Z,34.27
2022-09-11T10:00:46.846Z,33.33
2022-09-11T10:05:54.506Z,32.00
2022-09-11T10:11:01.610Z,30.80
2022-09-11T10:16:04.806Z,25.50
2022-09-11T10:21:12.710Z,25.90
2022-09-11T10:26:21.327Z,23.80
2022-09-11T10:31:22.949Z,18.17
2022-09-11T10:36:27.180Z,20.70
2022-09-11T10:41:34.159Z,18.97
2022-09-11T10:46:41.507Z,16.87
2022-09-11T10:51:59.833Z,11.63
2022-09-11T10:57:16.606Z,13.13
2022-09-11T11:02:35.302Z,14.43
2022-09-11T11:07:48.991Z,11.47
2022-09-11T11:13:22.642Z,10.63
2022-09-11T11:18:33.703Z,9.43
2022-09-11T11:23:56.972Z,9.53
2022-09-11T11:29:01.015Z,9.40
2022-09-11T11:34:15.218Z,8.57
2022-09-11T11:39:26.113Z,8.90
2022-09-11T11:44:51.349Z,8.43
2022-09-11T11:50:11.310Z,9.77
2022-09-11T11:55:20.663Z,7.27
2022-09-11T12:00:22.415Z,6.77
2022-09-11T12:05:33.661Z,10.93
2022-09-11T12:10:39.440Z,10.10
2022-09-11T12:15:57.875Z,12.67
2022-09-11T12:21:24.515Z,10.77
2022-09-11T12:26:26.905Z,10.20
2022-09-11T12:31:49.464Z,10.47
2022-09-11T12:37:07.270Z,9.17
2022-09-11T12:42:23.876Z,10.23
2022-09-11T12:47:43.552Z,9.57
2022-09-11T12:52:45.090Z,11.60
2022-09-11T12:57:46.621Z,10.17
2022-09-11T13:02:53.816Z,12.70
2022-09-11T13:07:57.985Z,9.33
2022-09-11T13:13:02.456Z,10.33
2022-09-11T13:18:36.260Z,12.43
2022-09-11T13:23:38.141Z,8.87
2022-09-11T13:28:47.297Z,10.53
2022-09-11T13:33:52.439Z,12.67
2022-09-11T13:38:57.785Z,11.63
2022-09-11T13:44:01.058Z,10.83
2022-09-11T13:49:06.625Z,8.77
2022-09-11T13:54:30.346Z,8.80
2022-09-11T13:59:36.788Z,8.77
2022-09-11T14:04:40.860Z,9.97
2022-09-11T14:09:47.048Z,11.67
2022-09-11T14:14:52.317Z,10.37
2022-09-11T14:19:58.926Z,9.83
2022-09-11T14:25:20.915Z,9.03
2022-09-11T14:30:31.484Z,9.13
2022-09-11T14:35:36.369Z,8.10
2022-09-11T14:40:38.161Z,8.83
2022-09-11T14:45:39.733Z,8.90
2022-09-11T14:50:41.634Z,7.90
2022-09-11T14:55:44.138Z,8.47
2022-09-11T15:00:45.868Z,8.27
2022-09-11T15:05:52.486Z,7.80
2022-09-11T15:10:53.964Z,8.13
2022-09-11T15:15:56.075Z,7.30
2022-09-11T15:20:57.730Z,7.07
2022-09-11T15:26:01.652Z,7.90
2022-09-11T15:31:04.356Z,7.37
2022-09-11T15:36:06.705Z,8.00
2022-09-11T15:41:08.918Z,8.10
2022-09-11T15:46:11.394Z,9.40
2022-09-11T15:51:14.262Z,8.10
2022-09-11T15:56:18.218Z,7.50
2022-09-11T16:01:28.737Z,7.10
2022-09-11T16:06:37.535Z,8.47
2022-09-11T16:11:43.929Z,6.73
2022-09-11T16:16:47.056Z,6.67
2022-09-11T16:21:49.567Z,6.60
2022-09-11T16:26:54.319Z,7.53
2022-09-11T16:31:56.080Z,7.67
2022-09-11T16:36:58.317Z,6.07
2022-09-11T16:41:59.791Z,6.77
2022-09-11T16:47:01.722Z,6.47
2022-09-11T16:52:04.177Z,6.80
2022-09-11T16:57:06.541Z,6.60
2022-09-11T17:02:10.016Z,5.63
2022-09-11T17:07:12.027Z,6.57
2022-09-11T17:12:13.794Z,6.47
2022-09-11T17:17:15.848Z,6.10
2022-09-11T17:22:17.770Z,5.43
2022-09-11T17:27:19.378Z,6.00
2022-09-11T17:32:29.797Z,6.23
2022-09-11T17:37:31.313Z,5.47
2022-09-11T17:42:33.315Z,5.07
2022-09-11T17:47:34.819Z,5.37
2022-09-11T17:52:36.862Z,6.00
2022-09-11T17:57:38.324Z,5.97
2022-09-11T18:02:40.272Z,5.37
2022-09-11T18:07:42.374Z,7.43
2022-09-11T18:12:43.795Z,5.93
2022-09-11T18:17:47.629Z,5.70
2022-09-11T18:22:50.183Z,5.53
2022-09-11T18:27:51.755Z,5.90
2022-09-11T18:32:53.292Z,7.07
2022-09-11T18:37:55.128Z,5.73
2022-09-11T18:42:56.742Z,6.33
2022-09-11T18:47:59.994Z,8.33
2022-09-11T18:53:02.601Z,7.50
2022-09-11T18:58:05.493Z,7.20
2022-09-11T19:03:07.134Z,6.87
2022-09-11T19:08:08.562Z,7.23
2022-09-11T19:13:10.208Z,6.23
2022-09-11T19:18:11.733Z,6.80
2022-09-11T19:23:13.342Z,6.87
2022-09-11T19:28:14.803Z,6.90
2022-09-11T19:33:16.362Z,7.07
2022-09-11T19:38:18.634Z,7.53
2022-09-11T19:43:24.768Z,8.83
2022-09-11T19:48:26.227Z,8.43
2022-09-11T19:53:28.123Z,8.23
2022-09-11T19:58:30.609Z,7.97
2022-09-11T20:03:32.074Z,7.07
2022-09-11T20:08:34.623Z,9.40
2022-09-11T20:13:36.825Z,8.63
2022-09-11T20:18:38.426Z,7.67
2022-09-11T20:23:40.242Z,8.80
2022-09-11T20:28:42.197Z,8.67
2022-09-11T20:33:44.871Z,8.70
2022-09-11T20:38:53.892Z,7.97
2022-09-11T20:43:56.954Z,10.33
2022-09-11T20:49:00.032Z,10.63
2022-09-11T20:54:02.327Z,8.80
2022-09-11T20:59:03.898Z,9.60
2022-09-11T21:04:05.525Z,11.27
2022-09-11T21:09:08.879Z,10.20
2022-09-11T21:14:14.990Z,11.73
2022-09-11T21:19:16.954Z,11.37
2022-09-11T21:24:18.453Z,11.60
2022-09-11T21:29:19.972Z,11.27
2022-09-11T21:34:21.431Z,11.60
2022-09-11T21:39:22.873Z,10.90
2022-09-11T21:44:24.546Z,14.37
2022-09-11T21:49:26.116Z,11.43
2022-09-11T21:54:31.733Z,10.90
2022-09-11T21:59:33.554Z,13.70
2022-09-11T22:04:35.058Z,12.13
2022-09-11T22:09:36.927Z,10.57
2022-09-11T22:14:38.464Z,11.83
2022-09-11T22:19:43.262Z,11.43
2022-09-11T22:24:45.340Z,13.50
2022-09-11T22:29:47.220Z,12.63
2022-09-11T22:34:49.849Z,10.97
2022-09-11T22:39:51.593Z,11.93
2022-09-11T22:44:53.194Z,15.10
2022-09-11T22:49:54.623Z,13.47
2022-09-11T22:54:56.050Z,12.03
2022-09-11T22:59:57.995Z,11.83
2022-09-11T23:05:17.874Z,13.83
2022-09-11T23:10:23.459Z,15.77
2022-09-11T23:15:24.937Z,12.23
2022-09-11T23:20:26.707Z,10.40
2022-09-11T23:25:28.223Z,13.23
2022-09-11T23:30:29.957Z,13.40
2022-09-11T23:35:31.723Z,13.17
2022-09-11T23:40:33.804Z,12.60
2022-09-11T23:45:35.263Z,11.57
2022-09-11T23:50:39.037Z,13.60
2022-09-11T23:55:42.385Z,12.30
